createdAt,value
2019-02-18T00:01:07.349Z,946.80
2019-02-18T00:02:15.412Z,946.81
2019-02-18T00:03:23.459Z,946.83
2019-02-18T00:04:31.592Z,946.81
2019-02-18T00:05:39.570Z,946.82
2019-02-18T00:06:47.613Z,946.83
2019-02-18T00:07:55.666Z,946.81
2019-02-18T00:09:03.725Z,946.82
2019-02-18T00:10:11.864Z,946.81
2019-02-18T00:11:19.829Z,946.82
2019-02-18T00:12:27.874Z,946.78
2019-02-18T00:13:35.939Z,946.76
2019-02-18T00:14:44.081Z,946.82
2019-02-18T00:15:52.111Z,946.75
2019-02-18T00:17:00.089Z,946.80
2019-02-18T00:18:08.134Z,946.79
2019-02-18T00:19:16.202Z,946.81
2019-02-18T00:20:24.251Z,946.76
2019-02-18T00:21:32.386Z,946.75
2019-02-18T00:22:40.373Z,946.80
2019-02-18T00:23:48.391Z,946.82
2019-02-18T00:24:56.541Z,946.84
2019-02-18T00:26:04.499Z,946.81
2019-02-18T00:27:12.653Z,946.81
2019-02-18T00:28:20.611Z,946.82
2019-02-18T00:29:28.665Z,946.82
2019-02-18T00:30:36.824Z,946.76
2019-02-18T00:31:44.769Z,946.78
2019-02-18T00:32:52.865Z,946.76
2019-02-18T00:34:00.878Z,946.73
2019-02-18T00:35:08.910Z,946.76
2019-02-18T00:36:16.977Z,946.73
2019-02-18T00:37:25.026Z,946.71
2019-02-18T00:38:33.076Z,946.70
2019-02-18T00:39:41.142Z,946.69
2019-02-18T00:40:49.185Z,946.69
2019-02-18T00:41:57.238Z,946.71
2019-02-18T00:43:05.363Z,946.71
2019-02-18T00:44:13.324Z,946.70
2019-02-18T00:45:21.379Z,946.68
2019-02-18T00:46:29.530Z,946.70
2019-02-18T00:47:37.504Z,946.66
2019-02-18T00:48:45.615Z,946.71
2019-02-18T00:49:53.595Z,946.72
2019-02-18T00:51:01.647Z,946.66
2019-02-18T00:52:09.703Z,946.63
2019-02-18T00:53:17.760Z,946.67
2019-02-18T00:54:26.245Z,946.67
2019-02-18T00:55:33.854Z,946.64
2019-02-18T00:56:41.883Z,946.63
2019-02-18T00:57:49.966Z,946.60
2019-02-18T00:58:58.003Z,946.67
2019-02-18T01:00:06.165Z,946.66
2019-02-18T01:01:14.104Z,946.63
2019-02-18T01:02:22.256Z,946.64
2019-02-18T01:03:30.217Z,946.64
2019-02-18T01:04:38.279Z,946.62
2019-02-18T01:05:46.423Z,946.63
2019-02-18T01:06:54.382Z,946.61
2019-02-18T01:08:02.420Z,946.61
2019-02-18T01:09:10.467Z,946.61
2019-02-18T01:10:18.523Z,946.63
2019-02-18T01:11:26.678Z,946.62
2019-02-18T01:12:34.634Z,946.64
2019-02-18T01:13:42.701Z,946.59
2019-02-18T01:14:50.746Z,946.62
2019-02-18T01:15:58.787Z,946.61
2019-02-18T01:17:06.945Z,946.56
2019-02-18T01:18:14.974Z,946.55
2019-02-18T01:19:22.949Z,946.55
2019-02-18T01:20:30.992Z,946.54
2019-02-18T01:21:39.061Z,946.53
2019-02-18T01:22:47.192Z,946.53
2019-02-18T01:23:55.141Z,946.53
2019-02-18T01:25:03.201Z,946.57
2019-02-18T01:26:11.247Z,946.49
2019-02-18T01:27:19.308Z,946.51
2019-02-18T01:28:27.363Z,946.52
2019-02-18T01:29:35.409Z,946.53
2019-02-18T01:30:43.462Z,946.59
2019-02-18T01:31:51.498Z,946.56
2019-02-18T01:32:59.807Z,946.53
2019-02-18T01:34:07.622Z,946.53
2019-02-18T01:35:15.681Z,946.48
2019-02-18T01:36:23.714Z,946.52
2019-02-18T01:37:31.770Z,946.49
2019-02-18T01:38:39.928Z,946.49
2019-02-18T01:39:47.902Z,946.48
2019-02-18T01:40:55.914Z,946.50
2019-02-18T01:42:04.003Z,946.51
2019-02-18T01:43:12.028Z,946.48
2019-02-18T01:44:20.146Z,946.48
2019-02-18T01:45:28.143Z,946.48
2019-02-18T01:46:36.195Z,946.47
2019-02-18T01:47:44.252Z,946.49
2019-02-18T01:48:52.386Z,946.52
2019-02-18T01:50:00.459Z,946.46
2019-02-18T01:51:08.393Z,946.45
2019-02-18T01:52:16.621Z,946.44
2019-02-18T01:53:24.497Z,946.43
2019-02-18T01:54:32.564Z,946.44
2019-02-18T01:55:40.697Z,946.43
2019-02-18T01:56:48.669Z,946.45
2019-02-18T01:57:56.712Z,946.45
2019-02-18T01:59:04.765Z,946.44
2019-02-18T02:00:12.793Z,946.39
2019-02-18T02:01:20.962Z,946.39
2019-02-18T02:02:28.913Z,946.40
2019-02-18T02:03:36.963Z,946.40
2019-02-18T02:04:45.109Z,946.38
2019-02-18T02:05:53.078Z,946.37
2019-02-18T02:07:01.213Z,946.32
2019-02-18T02:08:09.193Z,946.35
2019-02-18T02:09:17.226Z,946.34
2019-02-18T02:10:25.283Z,946.33
2019-02-18T02:11:33.313Z,946.32
2019-02-18T02:12:41.420Z,946.31
2019-02-18T02:13:49.432Z,946.32
2019-02-18T02:14:57.482Z,946.28
2019-02-18T02:16:05.538Z,946.33
2019-02-18T02:17:13.591Z,946.30
2019-02-18T02:18:21.737Z,946.30
2019-02-18T02:19:29.701Z,946.26
2019-02-18T02:20:37.857Z,946.21
2019-02-18T02:21:45.796Z,946.26
2019-02-18T02:22:53.928Z,946.23
2019-02-18T02:24:01.919Z,946.25
2019-02-18T02:25:09.973Z,946.28
2019-02-18T02:26:18.008Z,946.22
2019-02-18T02:27:26.088Z,946.20
2019-02-18T02:28:34.122Z,946.20
2019-02-18T02:29:42.152Z,946.17
2019-02-18T02:30:50.237Z,946.18
2019-02-18T02:31:58.275Z,946.19
2019-02-18T02:33:06.365Z,946.15
2019-02-18T02:34:14.379Z,946.16
2019-02-18T02:35:22.484Z,946.14
2019-02-18T02:36:30.583Z,946.14
2019-02-18T02:37:38.630Z,946.13
2019-02-18T02:38:46.601Z,946.13
2019-02-18T02:39:54.638Z,946.15
2019-02-18T02:41:02.692Z,946.11
2019-02-18T02:42:10.755Z,946.09
2019-02-18T02:43:18.878Z,946.11
2019-02-18T02:44:26.893Z,946.10
2019-02-18T02:45:34.903Z,946.10
2019-02-18T02:46:42.942Z,946.04
2019-02-18T02:47:50.994Z,946.05
2019-02-18T02:48:59.496Z,946.01
2019-02-18T02:50:07.106Z,946.03
2019-02-18T02:51:15.174Z,946.00
2019-02-18T02:52:23.444Z,946.00
2019-02-18T02:53:31.238Z,946.00
2019-02-18T02:54:39.406Z,945.96
2019-02-18T02:55:47.375Z,946.01
2019-02-18T02:56:55.408Z,946.02
2019-02-18T02:58:03.473Z,945.98
2019-02-18T02:59:11.516Z,945.95
2019-02-18T03:00:19.665Z,945.92
2019-02-18T03:01:27.634Z,945.94
2019-02-18T03:02:35.683Z,945.92
2019-02-18T03:03:43.728Z,945.91
2019-02-18T03:04:51.786Z,945.93
2019-02-18T03:05:59.950Z,945.90
2019-02-18T03:07:07.878Z,945.89
2019-02-18T03:08:20.160Z,945.92
2019-02-18T03:09:23.994Z,945.84
2019-02-18T03:10:32.017Z,945.88
2019-02-18T03:11:40.187Z,945.87
2019-02-18T03:12:48.182Z,945.83
2019-02-18T03:13:56.190Z,945.88
2019-02-18T03:15:04.240Z,945.82
2019-02-18T03:16:12.288Z,945.84
2019-02-18T03:17:20.452Z,945.86
2019-02-18T03:18:28.398Z,945.88
2019-02-18T03:19:36.589Z,945.84
2019-02-18T03:20:44.541Z,945.86
2019-02-18T03:21:52.571Z,945.86
2019-02-18T03:23:00.697Z,945.89
2019-02-18T03:24:08.653Z,945.91
2019-02-18T03:25:16.720Z,945.91
2019-02-18T03:26:24.757Z,945.87
2019-02-18T03:27:32.928Z,945.84
2019-02-18T03:28:40.877Z,945.84
2019-02-18T03:29:48.900Z,945.87
2019-02-18T03:30:56.986Z,945.88
2019-02-18T03:32:05.028Z,945.88
2019-02-18T03:33:13.177Z,945.87
2019-02-18T03:34:21.127Z,945.87
2019-02-18T03:35:29.188Z,945.88
2019-02-18T03:36:37.229Z,945.89
2019-02-18T03:37:45.369Z,945.87
2019-02-18T03:38:53.320Z,945.86
2019-02-18T03:40:01.358Z,945.86
2019-02-18T03:41:09.426Z,945.86
2019-02-18T03:42:17.492Z,945.89
2019-02-18T03:43:25.626Z,945.83
2019-02-18T03:44:33.590Z,945.85
2019-02-18T03:45:41.614Z,945.88
2019-02-18T03:46:50.679Z,945.86
2019-02-18T03:47:57.756Z,945.93
2019-02-18T03:49:05.937Z,945.92
2019-02-18T03:50:13.844Z,945.90
2019-02-18T03:51:21.893Z,945.87
2019-02-18T03:52:29.965Z,945.86
2019-02-18T03:53:38.460Z,945.86
2019-02-18T03:54:46.143Z,945.86
2019-02-18T03:55:54.119Z,945.86
2019-02-18T03:57:02.132Z,945.88
2019-02-18T03:58:10.193Z,945.87
2019-02-18T03:59:18.260Z,945.92
2019-02-18T04:00:26.403Z,945.86
2019-02-18T04:01:34.370Z,945.89
2019-02-18T04:02:42.402Z,945.86
2019-02-18T04:03:50.475Z,945.90
2019-02-18T04:04:58.505Z,945.85
2019-02-18T04:06:06.659Z,945.84
2019-02-18T04:07:14.618Z,945.85
2019-02-18T04:08:22.670Z,945.86
2019-02-18T04:09:30.821Z,945.84
2019-02-18T04:10:38.776Z,945.86
2019-02-18T04:11:46.934Z,945.87
2019-02-18T04:12:54.887Z,945.85
2019-02-18T04:14:02.934Z,945.85
2019-02-18T04:15:10.982Z,945.82
2019-02-18T04:16:19.021Z,945.82
2019-02-18T04:17:27.132Z,945.86
2019-02-18T04:18:35.146Z,945.86
2019-02-18T04:19:43.176Z,945.84
2019-02-18T04:20:51.242Z,945.85
2019-02-18T04:21:59.288Z,945.83
2019-02-18T04:23:07.454Z,945.81
2019-02-18T04:24:15.389Z,945.84
2019-02-18T04:25:23.544Z,945.81
2019-02-18T04:26:31.486Z,945.82
2019-02-18T04:27:39.647Z,945.81
2019-02-18T04:28:47.592Z,945.80
2019-02-18T04:29:55.672Z,945.78
2019-02-18T04:31:03.683Z,945.76
2019-02-18T04:32:11.760Z,945.78
2019-02-18T04:33:19.898Z,945.79
2019-02-18T04:34:27.862Z,945.77
2019-02-18T04:35:35.894Z,945.76
2019-02-18T04:36:43.960Z,945.72
2019-02-18T04:37:51.993Z,945.72
2019-02-18T04:39:00.299Z,945.72
2019-02-18T04:40:08.127Z,945.72
2019-02-18T04:41:16.282Z,945.73
2019-02-18T04:42:24.212Z,945.76
2019-02-18T04:43:32.267Z,945.73
2019-02-18T04:44:40.409Z,945.72
2019-02-18T04:45:48.391Z,945.75
2019-02-18T04:46:56.438Z,945.75
2019-02-18T04:48:04.489Z,945.76
2019-02-18T04:49:12.529Z,945.77
2019-02-18T04:50:21.026Z,945.74
2019-02-18T04:51:28.649Z,945.75
2019-02-18T04:52:36.702Z,945.77
2019-02-18T04:53:44.749Z,945.71
2019-02-18T04:54:52.821Z,945.71
2019-02-18T04:56:00.946Z,945.72
2019-02-18T04:57:08.989Z,945.71
2019-02-18T04:58:16.942Z,945.72
2019-02-18T04:59:24.997Z,945.74
2019-02-18T05:00:33.042Z,945.73
2019-02-18T05:01:41.187Z,945.73
2019-02-18T05:02:49.152Z,945.71
2019-02-18T05:03:57.185Z,945.70
2019-02-18T05:05:05.242Z,945.69
2019-02-18T05:06:13.298Z,945.71
2019-02-18T05:07:21.443Z,945.75
2019-02-18T05:08:29.427Z,945.69
2019-02-18T05:09:39.797Z,945.73
2019-02-18T05:10:45.506Z,945.70
2019-02-18T05:11:53.584Z,945.73
2019-02-18T05:13:01.651Z,945.74
2019-02-18T05:14:09.682Z,945.73
2019-02-18T05:15:17.729Z,945.74
2019-02-18T05:16:25.766Z,945.69
2019-02-18T05:17:33.866Z,945.75
2019-02-18T05:18:41.865Z,945.71
2019-02-18T05:19:49.899Z,945.73
2019-02-18T05:20:57.968Z,945.73
2019-02-18T05:22:06.030Z,945.69
2019-02-18T05:23:14.185Z,945.70
2019-02-18T05:24:22.114Z,945.72
2019-02-18T05:25:30.185Z,945.74
2019-02-18T05:26:38.225Z,945.70
2019-02-18T05:27:46.347Z,945.69
2019-02-18T05:28:54.418Z,945.69
2019-02-18T05:30:02.377Z,945.68
2019-02-18T05:31:10.446Z,945.69
2019-02-18T05:32:18.505Z,945.64
2019-02-18T05:33:26.534Z,945.66
2019-02-18T05:34:34.698Z,945.65
2019-02-18T05:35:42.638Z,945.67
2019-02-18T05:36:50.691Z,945.71
2019-02-18T05:37:58.751Z,945.65
2019-02-18T05:39:17.321Z,945.68
2019-02-18T05:40:14.945Z,945.70
2019-02-18T05:41:22.919Z,945.66
2019-02-18T05:42:30.952Z,945.70
2019-02-18T05:43:39.026Z,945.70
2019-02-18T05:44:47.398Z,945.69
2019-02-18T05:45:55.210Z,945.69
2019-02-18T05:47:03.205Z,945.70
2019-02-18T05:48:11.192Z,945.67
2019-02-18T05:49:19.317Z,945.69
2019-02-18T05:50:27.311Z,945.67
2019-02-18T05:51:35.467Z,945.65
2019-02-18T05:52:43.395Z,945.66
2019-02-18T05:53:51.480Z,945.67
2019-02-18T05:54:59.503Z,945.66
2019-02-18T05:56:07.756Z,945.67
2019-02-18T05:57:15.991Z,945.67
2019-02-18T05:58:23.711Z,945.67
2019-02-18T05:59:31.696Z,945.70
2019-02-18T06:00:39.773Z,945.67
2019-02-18T06:01:47.825Z,945.68
2019-02-18T06:02:56.048Z,945.70
2019-02-18T06:04:03.916Z,945.63
2019-02-18T06:05:12.116Z,945.66
2019-02-18T06:06:20.046Z,945.63
2019-02-18T06:07:28.188Z,945.64
2019-02-18T06:08:36.499Z,945.65
2019-02-18T06:09:44.175Z,945.65
2019-02-18T06:10:52.214Z,945.64
2019-02-18T06:12:00.291Z,945.67
2019-02-18T06:13:08.388Z,945.67
2019-02-18T06:14:16.487Z,945.66
2019-02-18T06:15:24.440Z,945.68
2019-02-18T06:16:32.504Z,945.69
2019-02-18T06:17:40.631Z,945.71
2019-02-18T06:18:48.587Z,945.70
2019-02-18T06:19:56.649Z,945.68
2019-02-18T06:21:04.706Z,945.71
2019-02-18T06:22:12.745Z,945.73
2019-02-18T06:23:20.893Z,945.74
2019-02-18T06:24:28.829Z,945.70
2019-02-18T06:25:36.899Z,945.70
2019-02-18T06:26:44.948Z,945.68
2019-02-18T06:27:53.004Z,945.69
2019-02-18T06:29:01.145Z,945.72
2019-02-18T06:30:09.210Z,945.73
2019-02-18T06:31:17.159Z,945.72
2019-02-18T06:32:25.202Z,945.72
2019-02-18T06:33:33.259Z,945.71
2019-02-18T06:34:41.410Z,945.73
2019-02-18T06:35:49.385Z,945.75
2019-02-18T06:36:57.420Z,945.73
2019-02-18T06:38:05.469Z,945.76
2019-02-18T06:39:13.526Z,945.77
2019-02-18T06:40:21.617Z,945.78
2019-02-18T06:41:29.622Z,945.75
2019-02-18T06:42:37.669Z,945.79
2019-02-18T06:43:45.731Z,945.82
2019-02-18T06:44:53.784Z,945.81
2019-02-18T06:46:01.898Z,945.82
2019-02-18T06:47:09.877Z,945.82
2019-02-18T06:48:17.935Z,945.84
2019-02-18T06:49:26.006Z,945.84
2019-02-18T06:50:34.083Z,945.86
2019-02-18T06:51:42.065Z,945.89
2019-02-18T06:52:50.134Z,945.90
2019-02-18T06:53:58.199Z,945.85
2019-02-18T06:55:06.230Z,945.85
2019-02-18T06:56:14.394Z,945.88
2019-02-18T06:57:22.307Z,945.84
2019-02-18T06:58:30.393Z,945.83
2019-02-18T06:59:38.445Z,945.88
2019-02-18T07:00:46.478Z,945.88
2019-02-18T07:01:54.627Z,945.88
2019-02-18T07:03:02.580Z,945.84
2019-02-18T07:04:10.646Z,945.90
2019-02-18T07:05:18.701Z,945.92
2019-02-18T07:06:26.796Z,945.91
2019-02-18T07:07:34.883Z,945.91
2019-02-18T07:08:42.863Z,945.94
2019-02-18T07:09:51.580Z,945.93
2019-02-18T07:10:58.978Z,945.92
2019-02-18T07:12:06.995Z,945.91
2019-02-18T07:13:15.114Z,945.98
2019-02-18T07:14:23.089Z,945.99
2019-02-18T07:15:31.162Z,945.99
2019-02-18T07:16:39.224Z,946.04
2019-02-18T07:17:47.357Z,946.03
2019-02-18T07:18:55.318Z,946.06
2019-02-18T07:20:03.371Z,946.06
2019-02-18T07:21:11.456Z,946.07
2019-02-18T07:22:19.480Z,946.11
2019-02-18T07:23:27.630Z,946.12
2019-02-18T07:24:35.573Z,946.11
2019-02-18T07:25:43.636Z,946.12
2019-02-18T07:26:51.674Z,946.18
2019-02-18T07:27:59.772Z,946.16
2019-02-18T07:29:07.891Z,946.10
2019-02-18T07:30:15.861Z,946.03
2019-02-18T07:31:23.893Z,946.11
2019-02-18T07:32:31.994Z,946.11
2019-02-18T07:33:40.012Z,946.10
2019-02-18T07:34:48.164Z,946.10
2019-02-18T07:35:56.149Z,946.13
2019-02-18T07:37:04.178Z,946.24
2019-02-18T07:38:12.220Z,946.27
2019-02-18T07:39:20.288Z,946.26
2019-02-18T07:40:28.432Z,946.21
2019-02-18T07:41:36.399Z,946.17
2019-02-18T07:42:44.453Z,946.24
2019-02-18T07:43:52.491Z,946.28
2019-02-18T07:45:00.567Z,946.24
2019-02-18T07:46:08.714Z,946.23
2019-02-18T07:47:16.666Z,946.21
2019-02-18T07:48:24.819Z,946.29
2019-02-18T07:49:32.789Z,946.38
2019-02-18T07:50:40.838Z,946.36
2019-02-18T07:51:48.966Z,946.27
2019-02-18T07:52:56.967Z,946.16
2019-02-18T07:54:04.987Z,946.08
2019-02-18T07:55:13.063Z,946.11
2019-02-18T07:56:21.095Z,946.09
2019-02-18T07:57:29.204Z,946.09
2019-02-18T07:58:37.211Z,946.09
2019-02-18T07:59:45.283Z,946.07
2019-02-18T08:00:53.308Z,946.05
2019-02-18T08:02:01.360Z,946.04
2019-02-18T08:03:09.519Z,946.05
2019-02-18T08:04:17.496Z,946.03
2019-02-18T08:05:25.563Z,946.02
2019-02-18T08:06:33.596Z,946.03
2019-02-18T08:07:41.656Z,946.04
2019-02-18T08:08:50.161Z,946.01
2019-02-18T08:09:57.771Z,946.01
2019-02-18T08:11:05.827Z,946.01
2019-02-18T08:12:13.876Z,946.02
2019-02-18T08:13:21.939Z,946.03
2019-02-18T08:14:30.088Z,946.03
2019-02-18T08:15:38.051Z,946.04
2019-02-18T08:16:46.096Z,945.99
2019-02-18T08:17:54.161Z,946.02
2019-02-18T08:19:02.296Z,945.97
2019-02-18T08:20:10.364Z,945.99
2019-02-18T08:21:18.364Z,946.00
2019-02-18T08:22:26.399Z,946.02
2019-02-18T08:23:34.423Z,945.99
2019-02-18T08:24:42.551Z,945.98
2019-02-18T08:25:50.632Z,945.94
2019-02-18T08:26:58.599Z,945.96
2019-02-18T08:28:06.649Z,945.96
2019-02-18T08:29:14.700Z,945.93
2019-02-18T08:30:22.770Z,945.91
2019-02-18T08:31:30.899Z,945.90
2019-02-18T08:32:38.880Z,945.91
2019-02-18T08:33:46.911Z,945.92
2019-02-18T08:34:55.099Z,945.96
2019-02-18T08:36:03.013Z,945.92
2019-02-18T08:37:11.193Z,945.93
2019-02-18T08:38:19.160Z,945.95
2019-02-18T08:39:27.197Z,945.95
2019-02-18T08:40:35.269Z,945.94
2019-02-18T08:41:43.293Z,945.94
2019-02-18T08:42:51.396Z,945.94
2019-02-18T08:43:59.427Z,945.97
2019-02-18T08:45:07.482Z,945.97
2019-02-18T08:46:15.541Z,945.94
2019-02-18T08:47:23.705Z,945.94
2019-02-18T08:48:31.640Z,945.94
2019-02-18T08:49:39.702Z,945.92
2019-02-18T08:50:47.853Z,945.92
2019-02-18T08:51:55.813Z,945.89
2019-02-18T08:53:03.958Z,945.85
2019-02-18T08:54:11.899Z,945.87
2019-02-18T08:55:19.980Z,945.90
2019-02-18T08:56:28.050Z,945.85
2019-02-18T08:57:36.217Z,945.89
2019-02-18T08:58:44.187Z,945.87
2019-02-18T08:59:52.200Z,945.85
2019-02-18T09:01:02.421Z,945.86
2019-02-18T09:02:08.301Z,945.83
2019-02-18T09:03:16.465Z,945.86
2019-02-18T09:04:24.427Z,945.86
2019-02-18T09:05:32.487Z,945.84
2019-02-18T09:06:40.633Z,945.83
2019-02-18T09:07:48.691Z,945.89
2019-02-18T09:08:56.656Z,945.85
2019-02-18T09:10:04.707Z,945.84
2019-02-18T09:11:12.771Z,945.81
2019-02-18T09:12:20.831Z,945.80
2019-02-18T09:13:29.138Z,945.81
2019-02-18T09:14:36.944Z,945.83
2019-02-18T09:15:44.997Z,945.83
2019-02-18T09:16:53.053Z,945.81
2019-02-18T09:18:01.077Z,945.83
2019-02-18T09:19:09.266Z,945.79
2019-02-18T09:20:17.223Z,945.78
2019-02-18T09:21:25.275Z,945.79
2019-02-18T09:22:33.377Z,945.78
2019-02-18T09:23:41.366Z,945.76
2019-02-18T09:24:49.540Z,945.80
2019-02-18T09:25:57.500Z,945.78
2019-02-18T09:27:05.552Z,945.81
2019-02-18T09:28:13.638Z,945.81
2019-02-18T09:29:21.655Z,945.79
2019-02-18T09:30:29.833Z,945.80
2019-02-18T09:31:37.794Z,945.78
2019-02-18T09:32:45.856Z,945.75
2019-02-18T09:33:53.886Z,945.71
2019-02-18T09:35:02.370Z,945.73
2019-02-18T09:36:10.109Z,945.72
2019-02-18T09:37:18.062Z,945.71
2019-02-18T09:38:26.164Z,945.72
2019-02-18T09:39:34.198Z,945.70
2019-02-18T09:40:46.054Z,945.70
2019-02-18T09:41:50.412Z,945.72
2019-02-18T09:42:58.357Z,945.67
2019-02-18T09:44:06.393Z,945.70
2019-02-18T09:45:14.801Z,945.67
2019-02-18T09:46:22.540Z,945.65
2019-02-18T09:47:30.630Z,945.65
2019-02-18T09:48:38.645Z,945.64
2019-02-18T09:49:46.692Z,945.65
2019-02-18T09:50:54.764Z,945.63
2019-02-18T09:52:02.813Z,945.61
2019-02-18T09:53:10.967Z,945.57
2019-02-18T09:54:18.936Z,945.64
2019-02-18T09:55:26.999Z,945.60
2019-02-18T09:56:36.890Z,945.65
2019-02-18T09:57:43.201Z,945.63
2019-02-18T09:58:51.147Z,945.64
2019-02-18T09:59:59.198Z,945.65
2019-02-18T10:01:07.284Z,945.70
2019-02-18T10:02:15.333Z,945.62
2019-02-18T10:03:31.352Z,945.66
2019-02-18T10:04:31.446Z,945.63
2019-02-18T10:05:39.521Z,945.70
2019-02-18T10:06:47.567Z,945.68
2019-02-18T10:07:55.703Z,945.68
2019-02-18T10:09:03.783Z,945.70
2019-02-18T10:10:11.714Z,945.69
2019-02-18T10:11:19.781Z,945.71
2019-02-18T10:12:27.862Z,945.67
2019-02-18T10:13:35.895Z,945.63
2019-02-18T10:14:44.066Z,945.65
2019-02-18T10:15:51.989Z,945.61
2019-02-18T10:17:00.078Z,945.58
2019-02-18T10:18:08.126Z,945.57
2019-02-18T10:19:16.201Z,945.56
2019-02-18T10:20:24.331Z,945.57
2019-02-18T10:21:32.287Z,945.52
2019-02-18T10:22:40.354Z,945.54
2019-02-18T10:23:48.523Z,945.54
2019-02-18T10:24:56.497Z,945.52
2019-02-18T10:26:04.631Z,945.51
2019-02-18T10:27:13.154Z,945.50
2019-02-18T10:28:20.659Z,945.49
2019-02-18T10:29:28.727Z,945.50
2019-02-18T10:30:36.782Z,945.50
2019-02-18T10:31:44.927Z,945.52
2019-02-18T10:32:52.877Z,945.49
2019-02-18T10:34:00.957Z,945.50
2019-02-18T10:35:08.993Z,945.47
2019-02-18T10:36:17.065Z,945.50
2019-02-18T10:37:25.230Z,945.44
2019-02-18T10:38:33.197Z,945.43
2019-02-18T10:39:41.360Z,945.46
2019-02-18T10:40:49.304Z,945.43
2019-02-18T10:41:57.379Z,945.44
2019-02-18T10:43:05.475Z,945.41
2019-02-18T10:44:13.503Z,945.44
2019-02-18T10:45:21.528Z,945.44
2019-02-18T10:46:29.604Z,945.42
2019-02-18T10:47:37.720Z,945.41
2019-02-18T10:48:45.727Z,945.43
2019-02-18T10:49:53.811Z,945.45
2019-02-18T10:51:01.891Z,945.41
2019-02-18T10:52:09.900Z,945.36
2019-02-18T10:53:18.067Z,945.40
2019-02-18T10:54:26.019Z,945.34
2019-02-18T10:55:34.537Z,945.30
2019-02-18T10:56:42.126Z,945.29
2019-02-18T10:57:50.202Z,945.28
2019-02-18T10:58:58.367Z,945.26
2019-02-18T11:00:06.303Z,945.24
2019-02-18T11:01:14.371Z,945.22
2019-02-18T11:02:22.431Z,945.23
2019-02-18T11:03:30.493Z,945.20
2019-02-18T11:04:38.596Z,945.21
2019-02-18T11:05:46.588Z,945.19
2019-02-18T11:06:54.673Z,945.18
2019-02-18T11:08:02.787Z,945.18
2019-02-18T11:09:10.781Z,945.15
2019-02-18T11:10:18.939Z,945.13
2019-02-18T11:11:27.010Z,945.17
2019-02-18T11:12:34.960Z,945.10
2019-02-18T11:13:43.023Z,945.12
2019-02-18T11:14:51.073Z,945.05
2019-02-18T11:15:59.232Z,945.08
2019-02-18T11:17:07.199Z,945.05
2019-02-18T11:18:15.253Z,945.05
2019-02-18T11:19:23.306Z,945.02
2019-02-18T11:20:31.359Z,945.01
2019-02-18T11:21:39.576Z,944.99
2019-02-18T11:22:47.490Z,944.96
2019-02-18T11:23:55.551Z,944.93
2019-02-18T11:25:03.603Z,944.91
2019-02-18T11:26:11.662Z,944.91
2019-02-18T11:27:19.831Z,944.91
2019-02-18T11:28:27.798Z,944.92
2019-02-18T11:29:35.857Z,944.92
2019-02-18T11:30:43.895Z,944.95
2019-02-18T11:31:51.946Z,944.91
2019-02-18T11:33:00.072Z,944.92
2019-02-18T11:34:08.100Z,944.91
2019-02-18T11:35:16.154Z,944.90
2019-02-18T11:36:24.268Z,944.86
2019-02-18T11:37:32.375Z,944.81
2019-02-18T11:38:40.323Z,944.79
2019-02-18T11:39:48.388Z,944.79
2019-02-18T11:40:56.454Z,944.78
2019-02-18T11:42:04.495Z,944.71
2019-02-18T11:43:12.662Z,944.74
2019-02-18T11:44:20.624Z,944.75
2019-02-18T11:45:28.685Z,944.75
2019-02-18T11:46:36.769Z,944.73
2019-02-18T11:47:44.800Z,944.74
2019-02-18T11:48:52.967Z,944.71
2019-02-18T11:50:00.916Z,944.72
2019-02-18T11:51:08.987Z,944.69
2019-02-18T11:52:17.068Z,944.67
2019-02-18T11:53:25.093Z,944.65
2019-02-18T11:54:33.270Z,944.60
2019-02-18T11:55:41.235Z,944.62
2019-02-18T11:56:49.291Z,944.58
2019-02-18T11:57:57.391Z,944.57
2019-02-18T11:59:05.396Z,944.53
2019-02-18T12:00:13.575Z,944.57
2019-02-18T12:01:21.513Z,944.51
2019-02-18T12:02:29.580Z,944.55
2019-02-18T12:03:37.660Z,944.51
2019-02-18T12:04:45.715Z,944.51
2019-02-18T12:05:53.869Z,944.52
2019-02-18T12:07:01.802Z,944.49
2019-02-18T12:08:09.892Z,944.49
2019-02-18T12:09:18.012Z,944.47
2019-02-18T12:10:26.006Z,944.45
2019-02-18T12:11:37.722Z,944.43
2019-02-18T12:12:42.186Z,944.42
2019-02-18T12:13:50.195Z,944.43
2019-02-18T12:14:58.247Z,944.39
2019-02-18T12:16:06.305Z,944.39
2019-02-18T12:17:20.426Z,944.37
2019-02-18T12:18:22.458Z,944.35
2019-02-18T12:19:30.504Z,944.31
2019-02-18T12:20:38.556Z,944.31
2019-02-18T12:21:46.615Z,944.33
2019-02-18T12:22:54.747Z,944.32
2019-02-18T12:24:02.731Z,944.33
2019-02-18T12:25:10.818Z,944.33
2019-02-18T12:26:18.864Z,944.34
2019-02-18T12:27:26.915Z,944.26
2019-02-18T12:28:35.006Z,944.28
2019-02-18T12:29:43.059Z,944.24
2019-02-18T12:30:51.117Z,944.21
2019-02-18T12:31:59.170Z,944.20
2019-02-18T12:33:07.321Z,944.21
2019-02-18T12:34:15.265Z,944.15
2019-02-18T12:35:30.455Z,944.17
2019-02-18T12:36:31.396Z,944.14
2019-02-18T12:37:39.459Z,944.14
2019-02-18T12:38:47.617Z,944.07
2019-02-18T12:39:55.606Z,944.13
2019-02-18T12:41:03.803Z,944.13
2019-02-18T12:42:11.692Z,944.11
2019-02-18T12:43:19.875Z,944.07
2019-02-18T12:44:27.929Z,944.05
2019-02-18T12:45:35.908Z,944.09
2019-02-18T12:46:43.936Z,944.06
2019-02-18T12:47:52.034Z,944.06
2019-02-18T12:49:00.099Z,944.03
2019-02-18T12:50:08.208Z,944.04
2019-02-18T12:51:16.193Z,944.05
2019-02-18T12:52:24.259Z,943.98
2019-02-18T12:53:32.373Z,944.01
2019-02-18T12:54:40.384Z,943.98
2019-02-18T12:55:48.522Z,943.93
2019-02-18T12:56:56.485Z,943.90
2019-02-18T12:58:04.628Z,943.91
2019-02-18T12:59:12.627Z,943.87
2019-02-18T13:00:20.676Z,943.86
2019-02-18T13:01:28.863Z,943.91
2019-02-18T13:02:43.595Z,943.90
2019-02-18T13:03:44.869Z,943.88
2019-02-18T13:04:52.932Z,943.87
2019-02-18T13:06:00.991Z,943.86
2019-02-18T13:07:09.154Z,943.84
2019-02-18T13:08:17.110Z,943.82
2019-02-18T13:09:25.162Z,943.80
2019-02-18T13:10:34.755Z,943.76
2019-02-18T13:11:41.290Z,943.73
2019-02-18T13:12:49.445Z,943.72
2019-02-18T13:13:57.406Z,943.70
2019-02-18T13:15:05.463Z,943.69
2019-02-18T13:16:13.538Z,943.67
2019-02-18T13:17:21.628Z,943.66
2019-02-18T13:18:29.653Z,943.66
2019-02-18T13:19:37.721Z,943.62
2019-02-18T13:20:45.784Z,943.60
2019-02-18T13:21:53.844Z,943.60
2019-02-18T13:23:01.987Z,943.57
2019-02-18T13:24:09.944Z,943.54
2019-02-18T13:25:18.023Z,943.55
2019-02-18T13:26:26.060Z,943.54
2019-02-18T13:27:34.235Z,943.52
2019-02-18T13:28:42.305Z,943.49
2019-02-18T13:29:50.273Z,943.50
2019-02-18T13:30:58.322Z,943.48
2019-02-18T13:32:06.388Z,943.49
2019-02-18T13:33:14.564Z,943.48
2019-02-18T13:34:22.523Z,943.47
2019-02-18T13:35:30.561Z,943.49
2019-02-18T13:36:38.609Z,943.47
2019-02-18T13:37:46.671Z,943.53
2019-02-18T13:38:54.858Z,943.48
2019-02-18T13:40:02.798Z,943.49
2019-02-18T13:41:10.873Z,943.47
2019-02-18T13:42:18.899Z,943.46
2019-02-18T13:43:26.992Z,943.48
2019-02-18T13:44:35.162Z,943.42
2019-02-18T13:45:43.103Z,943.41
2019-02-18T13:46:51.168Z,943.42
2019-02-18T13:47:59.209Z,943.38
2019-02-18T13:49:07.301Z,943.39
2019-02-18T13:50:15.527Z,943.35
2019-02-18T13:51:24.358Z,943.34
2019-02-18T13:52:31.468Z,943.36
2019-02-18T13:53:39.539Z,943.34
2019-02-18T13:54:47.598Z,943.35
2019-02-18T13:55:55.749Z,943.37
2019-02-18T13:57:09.726Z,943.37
2019-02-18T13:58:11.771Z,943.34
2019-02-18T13:59:19.847Z,943.34
2019-02-18T14:00:28.167Z,943.35
2019-02-18T14:01:36.070Z,943.33
2019-02-18T14:02:44.009Z,943.30
2019-02-18T14:03:52.054Z,943.30
2019-02-18T14:05:00.231Z,943.30
2019-02-18T14:06:08.207Z,943.28
2019-02-18T14:07:16.356Z,943.29
2019-02-18T14:08:24.322Z,943.27
2019-02-18T14:09:32.383Z,943.27